Time;durP1;ratioP1;P1;durP2;ratioP2;P2;SDS_P1;SDS_P2;PMS_P1;PMS_P2;Temp;Humidity;BMP_temperature;BMP_pressure;BME280_temperature;BME280_humidity;BME280_pressure;Samples;Min_cycle;Max_cycle;Signal;HPM_P1;HPM_P2
2022/10/25 00:01:31;;;;;;;9.25;2.30;;;;;;;15.88;77.75;100691.94;5098350;27;20050;-70
2022/10/25 00:03:58;;;;;;;7.43;2.92;;;;;;;15.89;76.98;100704.19;5101224;27;20068;-67
2022/10/25 00:06:24;;;;;;;12.75;5.10;;;;;;;15.52;79.05;100700.75;5105801;27;20047;-67
2022/10/25 00:08:51;;;;;;;14.38;6.88;;;;;;;15.50;78.73;100707.97;5099073;27;20498;-67
2022/10/25 00:11:20;;;;;;;13.50;6.45;;;;;;;15.78;77.94;100698.84;5109879;27;20495;-67
2022/10/25 00:13:49;;;;;;;15.70;6.13;;;;;;;16.03;76.47;100697.88;5109587;27;20518;-67
2022/10/25 00:16:16;;;;;;;11.52;5.53;;;;;;;16.02;76.85;100704.13;5098065;27;20067;-67
2022/10/25 00:18:44;;;;;;;7.05;2.42;;;;;;;15.90;76.77;100691.81;5110089;27;20619;-67
2022/10/25 00:21:10;;;;;;;4.85;1.55;;;;;;;15.97;76.15;100695.69;5109614;27;20051;-67
2022/10/25 00:23:37;;;;;;;5.50;2.08;;;;;;;16.18;74.91;100702.03;5099532;27;20043;-67
2022/10/25 00:26:04;;;;;;;6.05;1.50;;;;;;;16.27;74.13;100706.59;5110916;27;20501;-67
2022/10/25 00:28:31;;;;;;;4.55;1.33;;;;;;;16.46;73.03;100698.97;5109772;27;20055;-67
2022/10/25 00:31:01;;;;;;;5.47;1.13;;;;;;;16.73;71.99;100703.13;5098489;27;20039;-67
2022/10/25 00:33:30;;;;;;;6.70;1.38;;;;;;;16.81;72.21;100708.66;5108220;27;20050;-67
2022/10/25 00:36:03;;;;;;;4.40;1.00;;;;;;;16.52;73.34;100703.75;5109914;27;20054;-67
2022/10/25 00:38:30;;;;;;;4.05;1.00;;;;;;;16.41;73.37;100698.44;5099634;27;20043;-67
2022/10/25 00:40:56;;;;;;;3.83;1.30;;;;;;;16.38;73.37;100711.06;5108409;27;20070;-67
2022/10/25 00:43:34;;;;;;;5.50;0.95;;;;;;;16.46;72.37;100701.59;5110278;27;20485;-67
2022/10/25 00:46:05;;;;;;;3.28;1.00;;;;;;;16.35;72.83;100712.16;5094884;27;20039;-67
2022/10/25 00:48:32;;;;;;;3.28;0.85;;;;;;;16.14;72.98;100705.84;5108965;27;20042;-67
2022/10/25 00:51:02;;;;;;;5.35;0.85;;;;;;;16.13;72.37;100717.38;5079557;27;20410;-67
2022/10/25 00:53:34;;;;;;;3.80;0.80;;;;;;;16.12;72.50;100715.69;5100855;27;20051;-67
2022/10/25 00:56:05;;;;;;;2.28;0.50;;;;;;;16.17;72.08;100718.00;5096853;27;20040;-67
2022/10/25 00:58:35;;;;;;;3.83;0.70;;;;;;;16.12;72.52;100714.84;5094382;27;20483;-67
2022/10/25 01:01:05;;;;;;;2.53;0.65;;;;;;;16.25;71.84;100718.28;5084300;28;20491;-67
2022/10/25 01:03:34;;;;;;;6.72;0.90;;;;;;;16.37;71.44;100722.66;5078599;28;20066;-67
2022/10/25 01:06:03;;;;;;;2.50;0.90;;;;;;;16.20;71.79;100726.53;5086837;28;20043;-67
2022/10/25 01:08:30;;;;;;;2.78;0.60;;;;;;;15.97;72.31;100722.13;5088353;28;20514;-67
2022/10/25 01:10:57;;;;;;;1.98;0.60;;;;;;;15.92;73.26;100719.00;5078013;28;20104;-67
2022/10/25 01:13:23;;;;;;;2.58;0.70;;;;;;;15.79;73.35;100724.34;5076420;28;20063;-67
2022/10/25 01:16:00;;;;;;;2.70;0.40;;;;;;;15.78;73.57;100716.53;5087600;28;20088;-68
2022/10/25 01:18:37;;;;;;;3.42;0.65;;;;;;;15.78;74.66;100725.28;5086592;28;20055;-67
2022/10/25 01:21:39;;;;;;;1.67;0.40;;;;;;;15.68;76.33;100715.50;5073872;27;20051;-66
2022/10/25 01:24:37;;;;;;;3.40;0.87;;;;;;;15.71;77.06;100715.25;5084176;28;20043;-67
2022/10/25 01:27:28;;;;;;;0.95;0.40;;;;;;;15.92;76.82;100708.41;5086797;28;20043;-67
2022/10/25 01:30:08;;;;;;;1.30;0.40;;;;;;;15.87;76.74;100726.41;5047422;28;20487;-66
2022/10/25 01:32:43;;;;;;;3.00;0.63;;;;;;;15.60;78.09;100718.69;5088013;28;20052;-66
2022/10/25 01:35:19;;;;;;;5.45;0.70;;;;;;;15.61;78.46;100720.38;5077659;27;20048;-66
2022/10/25 01:37:55;;;;;;;4.88;1.05;;;;;;;15.65;78.58;100713.09;5087421;27;20043;-66
2022/10/25 01:40:27;;;;;;;3.00;0.60;;;;;;;15.47;79.01;100707.31;5075919;27;20501;-66
2022/10/25 01:43:02;;;;;;;3.13;0.93;;;;;;;15.35;79.54;100708.19;5084353;28;20068;-66
2022/10/25 01:45:34;;;;;;;1.73;0.65;;;;;;;15.39;80.39;100707.84;5077631;28;20047;-66
2022/10/25 01:48:09;;;;;;;4.00;0.80;;;;;;;15.33;80.33;100699.53;5086573;28;20051;-66
2022/10/25 01:50:39;;;;;;;3.00;0.60;;;;;;;15.42;79.98;100705.00;5086404;27;20050;-66
2022/10/25 01:53:06;;;;;;;1.75;0.52;;;;;;;15.47;79.55;100704.66;5087874;27;20056;-66
2022/10/25 01:55:38;;;;;;;3.60;0.63;;;;;;;15.64;79.06;100714.03;5086687;28;20051;-66
2022/10/25 01:58:13;;;;;;;6.28;0.77;;;;;;;15.89;78.11;100708.66;5077227;28;20044;-66
2022/10/25 02:00:50;;;;;;;2.95;1.10;;;;;;;15.61;79.11;100708.97;5087858;28;20055;-66
2022/10/25 02:03:26;;;;;;;2.30;0.68;;;;;;;15.77;78.69;100712.19;5096066;28;20059;-66
2022/10/25 02:06:08;;;;;;;3.45;0.60;;;;;;;15.77;78.17;100713.03;5104509;28;20044;-66
2022/10/25 02:08:39;;;;;;;2.60;0.90;;;;;;;16.14;76.25;100707.66;5102500;28;20074;-66
2022/10/25 02:11:21;;;;;;;0.82;0.43;;;;;;;16.31;75.49;100710.72;5104014;28;20538;-66
2022/10/25 02:13:57;;;;;;;4.78;0.80;;;;;;;16.06;76.40;100705.59;5102593;28;20079;-66
2022/10/25 02:16:26;;;;;;;2.88;0.88;;;;;;;15.95;76.85;100713.47;5104690;28;20040;-66
2022/10/25 02:18:58;;;;;;;1.77;0.50;;;;;;;15.91;77.03;100719.94;5106088;28;20097;-66
2022/10/25 02:21:27;;;;;;;3.17;0.90;;;;;;;15.75;77.56;100717.56;5107425;27;20043;-67
2022/10/25 02:23:56;;;;;;;5.70;1.08;;;;;;;16.13;76.02;100716.53;5108822;27;20093;-67
2022/10/25 02:26:24;;;;;;;9.13;1.50;;;;;;;16.05;76.09;100719.75;5108502;27;20054;-67
2022/10/25 02:28:51;;;;;;;3.63;1.02;;;;;;;15.65;77.68;100728.94;5109639;27;20116;-67
2022/10/25 02:31:20;;;;;;;2.17;0.70;;;;;;;15.96;76.77;100723.09;5108527;27;20512;-67
2022/10/25 02:33:48;;;;;;;5.50;0.90;;;;;;;16.06;76.07;100732.03;5107816;27;20047;-67
2022/10/25 02:36:19;;;;;;;0.98;0.60;;;;;;;16.01;76.38;100731.53;5109646;27;20097;-67
2022/10/25 02:38:47;;;;;;;4.63;1.52;;;;;;;15.96;75.46;100729.22;5101977;27;20044;-67
2022/10/25 02:41:13;;;;;;;3.55;0.85;;;;;;;15.46;77.65;100724.97;5087881;28;20048;-67
2022/10/25 02:43:40;;;;;;;3.55;0.85;;;;;;;15.53;77.28;100728.88;5090647;28;20044;-67
2022/10/25 02:46:07;;;;;;;2.45;0.80;;;;;;;15.25;77.94;100723.84;5107390;28;20051;-67
2022/10/25 02:48:33;;;;;;;1.60;0.65;;;;;;;15.16;78.71;100726.28;5104871;28;20459;-67
2022/10/25 02:50:59;;;;;;;1.17;0.50;;;;;;;14.79;80.61;100722.75;5106937;28;20449;-67
2022/10/25 02:53:27;;;;;;;3.33;1.67;;;;;;;14.81;80.24;100728.78;5105890;28;20449;-67
2022/10/25 02:56:00;;;;;;;2.35;0.80;;;;;;;14.52;81.53;100731.59;5107702;27;20101;-66
2022/10/25 02:58:26;;;;;;;;;;;;;;;14.58;81.47;100731.19;5102433;27;20117;-66
2022/10/25 03:00:53;;;;;;;3.42;0.70;;;;;;;14.23;83.10;100745.88;5109177;27;19920;-67
2022/10/25 03:03:19;;;;;;;1.98;0.80;;;;;;;14.57;82.08;100740.06;5097593;28;20040;-66
2022/10/25 03:05:45;;;;;;;2.75;0.80;;;;;;;14.85;80.56;100741.66;5068793;28;20051;-66
2022/10/25 03:08:12;;;;;;;2.95;0.70;;;;;;;15.04;79.46;100741.19;5070004;28;20054;-67
2022/10/25 03:10:40;;;;;;;2.70;0.55;;;;;;;14.81;80.36;100745.47;5059254;28;20056;-67
2022/10/25 03:13:06;;;;;;;3.10;0.80;;;;;;;14.25;83.18;100757.19;5069135;28;20434;-66
2022/10/25 03:15:32;;;;;;;4.03;0.80;;;;;;;13.71;86.11;100753.72;5072650;28;20044;-67
2022/10/25 03:17:59;;;;;;;2.95;0.95;;;;;;;14.22;84.77;100761.81;5079064;27;20051;-67
2022/10/25 03:20:25;;;;;;;3.47;1.00;;;;;;;14.67;82.40;100756.09;5088314;28;20586;-66
2022/10/25 03:22:52;;;;;;;5.65;1.00;;;;;;;14.84;81.66;100761.09;5088231;27;20518;-66
2022/10/25 03:25:18;;;;;;;1.45;0.60;;;;;;;14.79;82.20;100757.91;5068133;28;20039;-68
2022/10/25 03:27:46;;;;;;;3.47;0.70;;;;;;;14.71;83.20;100760.22;5089285;27;20055;-68
2022/10/25 03:30:13;;;;;;;3.67;0.80;;;;;;;14.72;83.59;100761.06;5089406;28;20046;-68
2022/10/25 03:32:40;;;;;;;2.22;0.80;;;;;;;14.59;85.03;100758.44;5080054;28;20048;-68
2022/10/25 03:35:07;;;;;;;5.10;0.70;;;;;;;14.45;86.30;100758.50;5088826;28;20510;-68
2022/10/25 03:37:34;;;;;;;2.53;0.70;;;;;;;14.52;86.97;100762.44;5090784;28;20699;-68
2022/10/25 03:40:00;;;;;;;5.65;1.15;;;;;;;14.47;87.71;100760.09;5078747;27;20093;-68
2022/10/25 03:42:27;;;;;;;4.95;1.35;;;;;;;14.57;87.52;100765.59;5110537;27;20076;-67
2022/10/25 03:44:55;;;;;;;2.55;0.77;;;;;;;14.87;86.35;100760.03;5089971;27;20059;-67
2022/10/25 03:47:21;;;;;;;4.63;1.25;;;;;;;14.90;85.80;100760.66;5079486;28;20043;-67
2022/10/25 03:49:47;;;;;;;7.22;1.15;;;;;;;15.13;84.35;100764.34;5089302;27;20055;-67
2022/10/25 03:52:14;;;;;;;3.30;1.08;;;;;;;14.98;85.07;100768.03;5089807;27;20060;-67
2022/10/25 03:54:41;;;;;;;3.90;0.98;;;;;;;15.03;84.31;100776.50;5079070;28;20100;-67
2022/10/25 03:57:08;;;;;;;5.38;1.10;;;;;;;14.97;84.42;100771.63;5089490;27;20066;-66
2022/10/25 03:59:34;;;;;;;7.47;1.25;;;;;;;14.85;85.25;100773.34;5088043;28;20426;-66
2022/10/25 04:02:02;;;;;;;3.13;1.20;;;;;;;14.37;87.75;100772.25;5079127;28;20192;-67
2022/10/25 04:04:28;;;;;;;3.03;1.33;;;;;;;14.11;88.94;100776.56;5089236;28;20044;-67
2022/10/25 04:06:55;;;;;;;4.75;1.48;;;;;;;13.71;92.57;100774.78;5089593;27;20048;-67
2022/10/25 04:09:21;;;;;;;4.47;1.60;;;;;;;13.35;94.65;100772.72;5094003;27;20054;-66
2022/10/25 04:11:47;;;;;;;5.05;1.30;;;;;;;13.70;93.00;100778.41;5090277;28;20050;-66
2022/10/25 04:14:14;;;;;;;4.00;1.33;;;;;;;13.68;92.92;100776.78;5079821;28;20463;-66
2022/10/25 04:16:40;;;;;;;14.02;2.13;;;;;;;14.01;90.90;100783.38;5077841;28;20419;-66
2022/10/25 04:19:08;;;;;;;5.30;1.55;;;;;;;14.07;89.77;100785.63;5088623;28;20039;-66
2022/10/25 04:21:34;;;;;;;4.22;1.42;;;;;;;13.96;90.46;100789.91;5087906;28;20044;-66
2022/10/25 04:24:01;;;;;;;4.97;1.35;;;;;;;13.65;92.51;100777.84;5078577;28;20051;-67
2022/10/25 04:26:28;;;;;;;6.05;1.65;;;;;;;13.79;91.28;100785.69;5088450;27;20414;-67
2022/10/25 04:28:55;;;;;;;5.00;1.63;;;;;;;13.43;93.43;100778.34;5087094;28;20054;-67
2022/10/25 04:31:23;;;;;;;5.53;1.55;;;;;;;13.37;94.38;100784.00;5078182;28;20054;-67
2022/10/25 04:33:50;;;;;;;11.23;1.75;;;;;;;13.70;92.48;100785.44;5088972;27;20036;-66
2022/10/25 04:36:19;;;;;;;7.97;1.80;;;;;;;13.43;93.61;100791.50;5087402;28;20051;-66
2022/10/25 04:38:47;;;;;;;9.73;1.88;;;;;;;13.65;93.18;100791.00;5077592;27;20521;-67
2022/10/25 04:41:14;;;;;;;6.55;2.08;;;;;;;13.97;91.72;100804.75;5087877;28;20040;-67
2022/10/25 04:43:41;;;;;;;8.02;1.85;;;;;;;14.12;90.49;100803.75;5087861;27;20047;-67
2022/10/25 04:46:07;;;;;;;4.45;1.75;;;;;;;14.03;89.91;100810.50;5078477;28;20522;-67
2022/10/25 04:48:36;;;;;;;9.23;2.25;;;;;;;13.78;91.64;100799.00;5087746;27;20044;-67
2022/10/25 04:51:03;;;;;;;6.20;2.53;;;;;;;14.00;91.22;100809.84;5086286;28;20054;-67
2022/10/25 04:53:31;;;;;;;7.38;1.58;;;;;;;14.24;89.30;100810.88;5077518;27;20047;-67
2022/10/25 04:55:58;;;;;;;2.75;1.48;;;;;;;13.63;93.92;100795.53;5087791;28;20092;-68
2022/10/25 04:58:25;;;;;;;5.10;1.50;;;;;;;13.61;96.81;100806.16;5087546;27;20055;-68
2022/10/25 05:00:52;;;;;;;4.45;1.63;;;;;;;13.97;95.12;100805.59;5077598;28;20047;-68
2022/10/25 05:03:19;;;;;;;4.65;1.77;;;;;;;14.29;91.99;100810.56;5097064;27;20101;-68
2022/10/25 05:05:46;;;;;;;5.82;1.67;;;;;;;14.49;90.38;100813.59;5089407;27;20046;-68
2022/10/25 05:08:12;;;;;;;6.70;2.03;;;;;;;14.42;89.31;100801.78;5077393;27;20051;-68
2022/10/25 05:10:40;;;;;;;9.73;1.92;;;;;;;14.10;92.17;100805.66;5087494;27;20442;-67
2022/10/25 05:13:07;;;;;;;3.70;1.48;;;;;;;14.31;90.22;100813.94;5088069;27;20046;-67
2022/10/25 05:15:33;;;;;;;13.57;2.00;;;;;;;14.29;90.08;100808.78;5078191;28;20415;-67
2022/10/25 05:18:00;;;;;;;6.78;1.90;;;;;;;14.02;91.79;100815.84;5088059;28;20047;-67
2022/10/25 05:20:27;;;;;;;6.90;2.15;;;;;;;14.12;91.19;100820.44;5087195;28;20039;-67
2022/10/25 05:22:53;;;;;;;7.30;1.88;;;;;;;14.37;89.27;100824.16;5077960;27;20043;-67
2022/10/25 05:25:21;;;;;;;5.30;1.60;;;;;;;14.39;88.62;100823.09;5075596;27;20492;-67
2022/10/25 05:27:49;;;;;;;7.07;1.88;;;;;;;14.49;87.67;100818.88;5076546;28;20047;-67
2022/10/25 05:30:15;;;;;;;5.53;1.73;;;;;;;14.48;87.78;100842.75;5077251;28;20089;-67
2022/10/25 05:32:42;;;;;;;5.03;1.65;;;;;;;14.25;88.74;100844.22;5087959;28;20046;-67
2022/10/25 05:35:09;;;;;;;5.32;1.67;;;;;;;14.24;89.68;100850.44;5087330;28;21551;-67
2022/10/25 05:37:35;;;;;;;6.00;1.88;;;;;;;14.18;90.42;100844.72;5077490;28;20160;-67
2022/10/25 05:40:01;;;;;;;5.03;1.80;;;;;;;13.77;93.31;100835.03;5087385;28;20487;-67
2022/10/25 05:42:28;;;;;;;4.95;2.10;;;;;;;13.37;95.46;100844.59;5087974;28;20051;-67
2022/10/25 05:44:56;;;;;;;7.55;1.80;;;;;;;13.94;93.38;100850.63;5076146;28;20039;-67
2022/10/25 05:47:22;;;;;;;9.27;2.63;;;;;;;14.56;89.26;100851.81;5088341;28;20047;-67
2022/10/25 05:49:49;;;;;;;10.88;2.58;;;;;;;14.50;89.21;100849.59;5082581;28;20051;-67
2022/10/25 05:52:15;;;;;;;8.10;2.15;;;;;;;14.70;88.00;100850.94;5076460;28;20278;-68
2022/10/25 05:54:41;;;;;;;8.85;1.98;;;;;;;14.70;87.34;100855.34;5094066;27;20055;-67
2022/10/25 05:57:08;;;;;;;9.65;2.08;;;;;;;14.19;89.10;100854.34;5093488;27;20097;-67
2022/10/25 05:59:34;;;;;;;6.95;2.42;;;;;;;13.78;91.63;100855.19;5082254;27;20191;-67
2022/10/25 06:02:02;;;;;;;12.52;2.70;;;;;;;13.82;90.74;100850.56;5093905;27;20494;-67
2022/10/25 06:04:28;;;;;;;4.57;1.80;;;;;;;13.51;92.32;100857.75;5093951;27;20047;-67
2022/10/25 06:06:56;;;;;;;6.93;2.05;;;;;;;13.42;94.01;100854.81;5083507;27;20055;-67
2022/10/25 06:09:23;;;;;;;13.38;2.40;;;;;;;13.45;93.13;100850.19;5082704;27;20083;-67
2022/10/25 06:11:49;;;;;;;8.80;2.38;;;;;;;13.10;95.00;100864.69;5093202;27;20056;-67
2022/10/25 06:14:16;;;;;;;9.98;2.65;;;;;;;13.14;95.45;100866.19;5083605;27;20409;-67
2022/10/25 06:16:42;;;;;;;8.52;2.85;;;;;;;13.12;95.16;100875.94;5094567;27;20559;-67
2022/10/25 06:19:10;;;;;;;10.52;2.90;;;;;;;13.52;92.69;100877.03;5093173;27;20084;-67
2022/10/25 06:21:37;;;;;;;6.40;2.88;;;;;;;13.52;92.88;100877.88;5082813;27;20052;-67
2022/10/25 06:24:04;;;;;;;17.90;3.15;;;;;;;14.06;90.77;100880.63;5090404;27;20040;-67
2022/10/25 06:26:31;;;;;;;6.45;2.53;;;;;;;14.22;89.28;100884.00;5094561;27;20082;-67
2022/10/25 06:29:00;;;;;;;14.35;3.35;;;;;;;13.93;90.62;100893.72;5084793;27;20043;-67
2022/10/25 06:31:27;;;;;;;8.60;2.38;;;;;;;14.01;90.28;100891.47;5095506;27;20043;-67
2022/10/25 06:33:54;;;;;;;11.07;2.60;;;;;;;13.94;90.83;100895.44;5092299;27;20388;-68
2022/10/25 06:36:25;;;;;;;6.03;2.33;;;;;;;14.30;88.91;100908.06;5083114;27;20055;-67
2022/10/25 06:38:52;;;;;;;6.57;2.20;;;;;;;14.32;88.80;100897.41;5094508;27;20046;-67
2022/10/25 06:41:21;;;;;;;10.05;2.65;;;;;;;14.40;88.60;100905.72;5094386;27;20056;-68
2022/10/25 06:43:48;;;;;;;8.68;2.40;;;;;;;14.35;88.67;100906.00;5083700;27;20043;-67
2022/10/25 06:46:20;;;;;;;7.53;2.20;;;;;;;14.31;89.44;100917.66;5093682;27;20043;-67
2022/10/25 06:48:46;;;;;;;8.50;2.33;;;;;;;14.29;90.11;100916.94;5086108;27;20052;-67
2022/10/25 06:51:13;;;;;;;7.30;2.95;;;;;;;14.60;88.30;100916.66;5071091;27;20039;-72
2022/10/25 06:53:40;;;;;;;13.32;2.50;;;;;;;14.34;88.39;100919.25;5091620;27;20050;-68
2022/10/25 06:56:09;;;;;;;6.43;2.38;;;;;;;14.47;87.87;100928.97;5093896;27;20422;-68
2022/10/25 06:58:36;;;;;;;9.40;2.38;;;;;;;14.39;89.30;100928.59;5082730;27;20506;-68
2022/10/25 07:01:04;;;;;;;5.20;2.13;;;;;;;14.33;89.83;100928.13;5092360;27;20043;-68
2022/10/25 07:03:34;;;;;;;6.68;2.15;;;;;;;14.20;90.53;100935.97;5107538;27;20090;-68
2022/10/25 07:06:01;;;;;;;8.48;2.22;;;;;;;14.04;92.83;100936.09;5081083;27;20050;-68
2022/10/25 07:08:27;;;;;;;9.95;2.20;;;;;;;14.32;92.07;100942.25;5089853;27;20072;-68
2022/10/25 07:10:56;;;;;;;15.93;2.35;;;;;;;13.70;95.09;100939.13;5081436;28;20044;-68
2022/10/25 07:13:22;;;;;;;11.55;2.60;;;;;;;14.09;94.56;100936.66;5088842;27;20055;-68
2022/10/25 07:15:49;;;;;;;8.88;2.80;;;;;;;13.84;95.65;100936.50;5089785;27;20047;-68
2022/10/25 07:18:15;;;;;;;12.75;2.80;;;;;;;14.31;93.31;100940.56;5090570;28;20044;-68
2022/10/25 07:20:45;;;;;;;10.30;2.90;;;;;;;14.25;93.79;100944.44;5080026;28;20503;-67
2022/10/25 07:23:12;;;;;;;10.70;3.28;;;;;;;14.25;93.27;100941.81;5089746;27;20048;-68
2022/10/25 07:25:38;;;;;;;6.82;2.45;;;;;;;14.67;92.55;100942.66;5085006;28;20050;-68
2022/10/25 07:28:06;;;;;;;6.38;2.50;;;;;;;14.85;90.57;100946.72;5089729;28;20051;-68
2022/10/25 07:30:33;;;;;;;11.13;2.70;;;;;;;15.13;88.52;100949.22;5089167;28;20515;-67
2022/10/25 07:33:01;;;;;;;6.35;2.22;;;;;;;15.43;87.90;100955.06;5086762;28;20070;-68
2022/10/25 07:35:28;;;;;;;14.90;3.20;;;;;;;15.91;85.85;100955.28;5082120;27;20047;-67
2022/10/25 07:37:54;;;;;;;9.30;2.28;;;;;;;16.29;84.00;100955.22;5088881;27;20105;-67
2022/10/25 07:40:21;;;;;;;4.82;1.75;;;;;;;16.71;81.52;100959.22;5084070;28;20068;-68
2022/10/25 07:42:48;;;;;;;7.93;2.22;;;;;;;16.69;79.94;100953.19;5089260;28;20540;-68
2022/10/25 07:45:16;;;;;;;5.35;1.77;;;;;;;16.53;80.97;100972.81;5089153;28;20054;-68
2022/10/25 07:47:43;;;;;;;8.50;1.90;;;;;;;16.60;80.36;100970.59;5078642;28;20130;-68
2022/10/25 07:50:10;;;;;;;5.20;1.73;;;;;;;17.11;79.67;100967.72;5089054;28;20047;-68
2022/10/25 07:52:36;;;;;;;12.88;1.90;;;;;;;17.84;76.33;100966.44;5088151;27;20081;-68
2022/10/25 07:55:02;;;;;;;7.00;1.83;;;;;;;18.34;73.64;100965.06;5086479;27;20043;-68
2022/10/25 07:57:29;;;;;;;6.80;1.73;;;;;;;18.78;73.25;100966.78;5090318;28;20499;-68
2022/10/25 07:59:55;;;;;;;5.45;1.80;;;;;;;18.18;73.18;100969.09;5089008;27;20046;-68
2022/10/25 08:02:23;;;;;;;4.50;1.48;;;;;;;18.60;73.32;100968.28;5091754;27;20050;-68
2022/10/25 08:04:49;;;;;;;4.15;1.63;;;;;;;18.65;73.61;100965.28;5077173;28;20132;-68
2022/10/25 08:07:16;;;;;;;10.88;2.30;;;;;;;18.90;73.02;100963.13;5089833;27;20039;-68
2022/10/25 08:09:42;;;;;;;7.25;2.05;;;;;;;18.72;72.54;100962.00;5089718;27;20047;-68
2022/10/25 08:12:09;;;;;;;4.88;1.63;;;;;;;18.58;73.36;100967.59;5078141;27;20047;-68
2022/10/25 08:14:35;;;;;;;5.85;1.50;;;;;;;18.99;72.99;100966.84;5088874;28;20047;-68
2022/10/25 08:17:01;;;;;;;8.35;1.58;;;;;;;19.30;71.29;100965.09;5087928;27;20426;-69
2022/10/25 08:19:29;;;;;;;16.73;1.90;;;;;;;19.03;70.12;100967.44;5079121;28;20044;-69
2022/10/25 08:21:56;;;;;;;9.30;2.13;;;;;;;18.99;70.59;100960.69;5084398;27;20036;-69
2022/10/25 08:24:22;;;;;;;9.13;2.80;;;;;;;19.51;70.55;100957.16;5089551;28;20050;-69
2022/10/25 08:26:49;;;;;;;6.18;1.88;;;;;;;19.82;68.00;100958.84;5077792;27;20047;-69
2022/10/25 08:29:15;;;;;;;8.52;1.88;;;;;;;19.98;67.15;100959.22;5085232;28;20047;-69
2022/10/25 08:31:41;;;;;;;7.07;1.60;;;;;;;19.67;67.57;100968.16;5088538;27;20048;-69
2022/10/25 08:34:08;;;;;;;6.15;1.42;;;;;;;19.36;69.13;100973.41;5079176;27;20043;-69
2022/10/25 08:36:36;;;;;;;5.20;1.83;;;;;;;19.39;70.17;100965.19;5088950;27;20512;-69
2022/10/25 08:39:02;;;;;;;7.70;1.75;;;;;;;19.13;69.92;100969.19;5087293;28;20040;-69
2022/10/25 08:41:42;;;;;;;3.90;1.83;;;;;;;19.21;70.53;100969.41;5079044;28;20044;-69
2022/10/25 08:44:16;;;;;;;6.47;1.85;;;;;;;19.37;69.47;100982.22;5084415;28;20047;-69
2022/10/25 08:46:53;;;;;;;7.38;1.20;;;;;;;19.20;70.40;100977.47;5078557;27;20039;-69
2022/10/25 08:49:25;;;;;;;7.35;1.75;;;;;;;19.33;68.62;100976.31;5089662;27;20154;-69
2022/10/25 08:51:55;;;;;;;6.70;1.50;;;;;;;19.07;67.72;100985.63;5095732;27;20059;-69
2022/10/25 08:54:27;;;;;;;6.07;1.63;;;;;;;18.88;67.67;100996.94;5103608;27;20047;-69
2022/10/25 08:57:01;;;;;;;4.00;1.50;;;;;;;18.86;67.77;100992.72;5088379;27;20044;-69
2022/10/25 08:59:33;;;;;;;4.68;1.48;;;;;;;18.59;68.92;100998.47;5087912;28;20750;-69
2022/10/25 09:02:00;;;;;;;4.43;1.15;;;;;;;18.40;68.34;100999.06;5087752;27;20047;-69
2022/10/25 09:04:29;;;;;;;8.32;1.70;;;;;;;18.35;69.14;101000.41;5077533;28;20043;-69
2022/10/25 09:07:09;;;;;;;8.00;1.35;;;;;;;17.91;70.57;101004.78;5088068;28;20043;-69
2022/10/25 09:09:45;;;;;;;6.32;1.48;;;;;;;17.96;71.67;101007.91;5088580;27;20069;-68
2022/10/25 09:12:23;;;;;;;6.38;1.50;;;;;;;18.35;69.90;101005.72;5088025;27;20044;-68
2022/10/25 09:14:57;;;;;;;5.10;1.65;;;;;;;18.24;70.26;101006.59;5088097;27;20105;-69
2022/10/25 09:17:38;;;;;;;6.90;1.50;;;;;;;18.08;69.51;101011.41;5088546;27;20077;-68
2022/10/25 09:20:06;;;;;;;6.78;1.60;;;;;;;17.86;71.08;101016.69;5067934;28;20097;-68
2022/10/25 09:22:45;;;;;;;7.57;1.73;;;;;;;18.21;69.73;101017.44;5067866;28;20742;-68
2022/10/25 09:25:20;;;;;;;6.85;1.38;;;;;;;18.14;69.74;101024.22;5068073;28;20047;-68
2022/10/25 09:27:57;;;;;;;10.88;1.40;;;;;;;18.18;69.68;101030.94;5065660;28;20072;-68
2022/10/25 09:30:23;;;;;;;3.53;1.40;;;;;;;17.87;70.39;101035.16;5086826;27;20112;-68
2022/10/25 09:32:55;;;;;;;4.75;1.65;;;;;;;17.74;71.45;101038.84;5086964;27;20055;-69
2022/10/25 09:35:27;;;;;;;6.40;1.83;;;;;;;17.74;71.82;101041.50;5087434;27;20055;-68
2022/10/25 09:37:59;;;;;;;6.65;1.48;;;;;;;17.71;71.08;101039.09;5088366;27;20062;-68
2022/10/25 09:40:33;;;;;;;5.38;1.38;;;;;;;17.81;71.10;101035.63;5088621;27;20043;-68
2022/10/25 09:43:04;;;;;;;4.60;1.30;;;;;;;18.02;70.67;101041.09;5070372;28;20080;-68
2022/10/25 09:45:39;;;;;;;5.53;1.35;;;;;;;17.97;70.18;101048.53;5066197;28;20047;-68
2022/10/25 09:48:15;;;;;;;5.03;1.67;;;;;;;17.95;70.23;101050.50;5086924;28;20051;-68
2022/10/25 09:50:46;;;;;;;3.85;1.48;;;;;;;17.93;70.61;101053.25;5077209;28;20044;-68
2022/10/25 09:53:15;;;;;;;5.72;1.85;;;;;;;17.89;70.78;101058.91;5086582;28;20043;-68
2022/10/25 09:55:50;;;;;;;5.05;1.40;;;;;;;17.91;71.11;101057.00;5087662;28;20051;-68
2022/10/25 09:58:20;;;;;;;5.40;1.48;;;;;;;18.16;70.16;101066.53;5087183;28;20052;-68
2022/10/25 10:00:46;;;;;;;10.73;2.53;;;;;;;18.12;70.22;101070.38;5086792;28;20055;-68
2022/10/25 10:03:14;;;;;;;5.38;1.45;;;;;;;18.05;71.23;101070.03;5076504;28;20045;-68
2022/10/25 10:05:46;;;;;;;4.53;1.20;;;;;;;18.31;70.38;101066.19;5087789;28;20063;-68
2022/10/25 10:08:14;;;;;;;5.63;1.60;;;;;;;18.27;69.74;101059.44;5086797;28;20497;-68
2022/10/25 10:10:41;;;;;;;5.13;1.50;;;;;;;18.43;69.87;101059.91;5076547;28;20043;-68
2022/10/25 10:13:16;;;;;;;8.65;1.45;;;;;;;18.87;68.07;101060.84;5085931;28;20044;-68
2022/10/25 10:15:50;;;;;;;5.88;1.55;;;;;;;19.06;67.28;101068.16;5086725;28;20047;-68
2022/10/25 10:18:28;;;;;;;4.65;1.52;;;;;;;19.15;66.90;101062.06;5087116;28;20044;-68
2022/10/25 10:20:59;;;;;;;6.75;1.50;;;;;;;18.61;67.98;101052.31;5087400;28;20047;-68
2022/10/25 10:23:29;;;;;;;2.70;1.20;;;;;;;18.73;67.66;101061.97;5083117;28;20482;-68
2022/10/25 10:25:56;;;;;;;4.75;1.70;;;;;;;18.47;68.33;101047.25;5078316;28;20048;-68
2022/10/25 10:28:23;;;;;;;6.00;1.70;;;;;;;18.38;67.58;101054.13;5059438;28;20423;-68
2022/10/25 10:30:53;;;;;;;5.28;1.88;;;;;;;18.63;67.85;101052.19;5086687;28;20116;-68
2022/10/25 10:33:20;;;;;;;6.07;1.58;;;;;;;18.90;66.38;101060.59;5085617;28;20040;-68
2022/10/25 10:35:47;;;;;;;6.07;1.67;;;;;;;19.14;65.61;101055.91;5081179;27;20066;-68
2022/10/25 10:38:20;;;;;;;6.18;1.70;;;;;;;19.72;64.72;101062.59;5083054;28;20070;-68
2022/10/25 10:40:48;;;;;;;3.92;1.40;;;;;;;20.48;61.27;101060.47;5089142;28;20513;-68
2022/10/25 10:43:23;;;;;;;4.55;1.63;;;;;;;20.04;61.44;101077.59;5081103;28;20510;-68
2022/10/25 10:45:51;;;;;;;4.88;1.50;;;;;;;19.82;62.23;101062.63;5072445;28;20036;-68
2022/10/25 10:48:22;;;;;;;4.68;1.60;;;;;;;19.68;61.92;101069.13;5070606;28;20044;-68
2022/10/25 10:50:49;;;;;;;5.78;1.50;;;;;;;19.50;62.83;101070.69;5081509;27;20039;-68
2022/10/25 10:53:21;;;;;;;4.55;1.40;;;;;;;19.74;62.22;101071.25;5090295;28;20125;-68
2022/10/25 10:55:50;;;;;;;6.07;1.80;;;;;;;20.11;61.33;101068.97;5079745;28;20055;-68
2022/10/25 10:58:19;;;;;;;4.90;1.60;;;;;;;20.22;61.92;101063.56;5089555;28;20066;-68
2022/10/25 11:00:50;;;;;;;2.70;1.67;;;;;;;20.58;61.39;101064.03;5090637;28;20043;-68
2022/10/25 11:03:45;;;;;;;4.22;1.38;;;;;;;20.14;60.32;101070.53;5088772;28;20529;-68
2022/10/25 11:06:17;;;;;;;6.35;1.77;;;;;;;19.79;61.28;101070.88;5080233;28;20050;-68
2022/10/25 11:08:45;;;;;;;2.75;1.50;;;;;;;19.79;62.11;101078.88;5090701;27;20071;-68
2022/10/25 11:11:16;;;;;;;3.30;1.52;;;;;;;20.16;60.62;101080.06;5090201;28;20487;-68
2022/10/25 11:13:51;;;;;;;5.18;1.80;;;;;;;19.87;60.97;101079.06;5080193;28;20047;-68
2022/10/25 11:16:43;;;;;;;4.20;2.17;;;;;;;20.11;61.37;101078.75;5089336;28;20097;-68
2022/10/25 11:19:25;;;;;;;5.05;1.65;;;;;;;19.94;61.72;101072.25;5090079;28;20045;-68
2022/10/25 11:22:05;;;;;;;3.97;1.60;;;;;;;20.27;61.74;101074.66;5089539;28;20475;-68
2022/10/25 11:24:40;;;;;;;3.42;1.42;;;;;;;19.96;61.10;101078.25;5088086;27;20502;-68
2022/10/25 11:27:19;;;;;;;4.00;1.95;;;;;;;20.16;60.11;101074.75;5090501;28;20154;-68
2022/10/25 11:30:03;;;;;;;4.45;1.70;;;;;;;20.20;58.76;101068.19;5089212;27;20047;-68
2022/10/25 11:32:48;;;;;;;5.00;2.22;;;;;;;20.73;58.67;101070.66;5079313;28;20048;-68
2022/10/25 11:35:29;;;;;;;6.97;1.40;;;;;;;20.86;57.27;101063.25;5089769;27;20093;-68